Latest Weather Observations for Devonport Airport

IDT60801

Issued at 11:02 am EDT Friday 30 January 2015 (issued every 30 minutes, with the page automatically refreshed every 10 minutes)

About weather observations | Map of weather stations | Latest weather observations for TAS | Other Formats
Station Details ID: 091126 Name: DEVONPORT AIRPORT Lat: -41.17 Lon: 146.43 Height: 8.0 m
Data from the previous 72 hours. | See also: Recent months at Devonport Airport
Date/Time
EDT
Temp
°C
App
Temp
°C
Dew
Point
Rel
Hum
%
Delta-T
°C
Wind Press
QNH
hPa
Press
MSL
hPa
Rain
since 9 am
mm
Dir
 
Spd
km/h
Gust
km/h
Spd
kts
Gust
kts
30/11:00am 17.0 13.8 8.4 57 4.4 SSE 15 24 8 13 1016.3 1016.3 0.0
30/10:30am 16.3 12.6 7.8 57 4.3 SE 17 24 9 13 1016.7 1016.7 0.0
30/10:00am 16.4 13.4 7.6 56 4.4 SE 13 22 7 12 1016.9 1016.9 0.0
30/09:30am 16.0 12.0 6.7 54 4.6 S 17 22 9 12 1016.9 1016.9 0.0
30/09:00am 15.1 11.8 6.4 56 4.2 SSW 13 19 7 10 1017.0 1017.0 0.0
30/08:30am 14.6 11.0 6.7 59 3.8 S 15 22 8 12 1017.0 1017.0 0.0
30/08:00am 14.0 10.2 5.9 58 3.8 S 15 20 8 11 1017.1 1017.1 0.0
30/07:30am 12.3 8.8 5.5 63 3.2 S 13 17 7 9 1017.2 1017.2 0.0
30/07:00am 11.6 8.4 5.3 65 2.9 S 11 15 6 8 1017.3 1017.3 0.0
30/06:30am 11.7 8.8 4.9 63 3.1 SSW 9 13 5 7 1017.4 1017.4 0.0
30/05:30am 11.2 8.4 5.1 66 2.8 SSE 9 13 5 7 1017.8 1017.8 0.0
30/05:00am 11.2 8.4 5.1 66 2.8 S 9 11 5 6 1017.7 1017.7 0.0
30/04:30am 11.4 9.1 4.6 63 3.1 S 6 9 3 5 1018.0 1017.9 0.0
30/04:00am 11.2 8.0 4.9 65 2.9 SW 11 15 6 8 1018.0 1017.9 0.0
30/03:30am 12.6 9.7 4.8 59 3.6 S 9 13 5 7 1018.6 1018.5 0.0
30/03:00am 12.1 9.8 5.0 62 3.2 S 6 9 3 5 1019.0 1018.9 0.0
30/02:30am 11.7 9.5 5.3 65 2.9 SSE 6 7 3 4 1019.3 1019.2 0.0
30/02:00am 12.4 9.6 5.1 61 3.4 SSW 9 11 5 6 1019.7 1019.6 0.0
30/01:30am 12.2 9.0 5.1 62 3.3 SSE 11 15 6 8 1019.9 1019.8 0.0
30/01:00am 12.0 8.7 4.7 61 3.3 SSE 11 15 6 8 1020.3 1020.2 0.0
30/12:00am 13.0 7.2 4.2 55 4.0 SE 24 35 13 19 1020.4 1020.4 0.0
 
Date/Time
EDT
Temp
°C
App
Temp
°C
Dew
Point
Rel
Hum
%
Delta-T
°C
Wind Press
QNH
hPa
Press
MSL
hPa
Rain
since 9 am
mm
Dir
 
Spd
km/h
Gust
km/h
Spd
kts
Gust
kts
29/11:30pm 13.2 6.7 4.6 56 3.9 SE 28 37 15 20 1020.5 1020.4 0.0
29/11:00pm 13.5 7.4 4.9 56 4.0 SE 26 33 14 18 1020.6 1020.5 0.0
29/10:30pm 14.0 7.7 5.6 57 4.0 SE 28 35 15 19 1020.7 1020.6 0.0
29/10:00pm 14.5 9.0 6.1 57 4.0 SE 24 35 13 19 1020.7 1020.6 0.0
29/09:30pm 15.4 10.6 5.6 52 4.7 SE 20 28 11 15 1020.4 1020.3 0.0
29/09:00pm 16.2 11.5 5.2 48 5.2 ESE 19 28 10 15 1020.1 1020.0 0.0
29/08:30pm 17.4 12.3 4.0 41 6.3 SE 20 32 11 17 1019.9 1019.8 0.0
29/08:00pm 18.1 13.0 4.3 40 6.5 SE 20 28 11 15 1019.8 1019.7 0.0
29/07:30pm 18.3 13.4 4.1 39 6.7 ESE 19 28 10 15 1019.5 1019.4 0.0
29/07:00pm 19.1 14.3 4.8 39 6.9 SE 19 28 10 15 1019.5 1019.4 0.0
29/06:30pm 19.6 14.3 4.9 38 7.1 SE 22 33 12 18 1019.5 1019.4 0.0
29/05:30pm 20.2 13.8 5.4 38 7.3 SE 28 41 15 22 1019.5 1019.4 0.0
29/05:00pm 21.8 14.8 6.1 36 7.9 SE 32 46 17 25 1019.6 1019.5 0.0
29/04:38pm 21.6 14.8 6.7 38 7.6 SE 32 50 17 27 1019.8 1019.7 0.0
29/04:30pm 21.2 14.5 5.5 36 7.8 SE 30 43 16 23 1019.8 1019.7 0.0
29/04:00pm 20.7 14.1 5.9 38 7.4 SE 30 50 16 27 1020.2 1020.1 0.0
29/03:56pm 20.7 14.4 5.5 37 7.5 SE 28 50 15 27 1020.1 1020.0 0.0
29/03:30pm 22.0 15.7 5.8 35 8.1 SE 28 41 15 22 1020.3 1020.2 0.0
29/03:00pm 22.4 17.4 6.6 36 8.0 SE 22 39 12 21 1020.6 1020.5 0.0
29/02:30pm 21.2 16.2 6.3 38 7.5 SSE 22 35 12 19 1020.8 1020.7 0.0
29/02:00pm 21.9 16.7 7.3 39 7.5 SE 24 35 13 19 1021.1 1021.0 0.0
29/01:30pm 21.1 15.8 6.6 39 7.3 SE 24 37 13 20 1021.5 1021.4 0.0
29/01:00pm 20.4 14.7 6.7 41 6.9 SE 26 37 14 20 1021.8 1021.7 0.0
29/12:30pm 21.0 15.1 7.3 41 7.0 SE 28 39 15 21 1022.3 1022.2 0.0
29/12:00pm 19.8 12.8 6.2 41 6.8 SE 32 44 17 24 1022.6 1022.5 0.0
29/11:30am 19.7 13.3 6.8 43 6.5 SSE 30 43 16 23 1022.7 1022.6 0.0
29/11:00am 19.1 12.0 6.2 43 6.4 SE 33 43 18 23 1022.8 1022.7 0.0
29/10:30am 18.2 11.2 5.8 44 6.1 SE 32 43 17 23 1023.1 1023.0 0.0
29/10:00am 17.4 11.9 5.7 46 5.7 SSE 24 33 13 18 1023.2 1023.1 0.0
29/09:30am 15.9 10.1 6.3 53 4.7 S 26 35 14 19 1023.3 1023.2 0.0
29/09:00am 15.4 9.7 6.7 56 4.2 SSE 26 32 14 17 1023.2 1023.1 0.2
29/08:30am 14.3 7.8 6.6 60 3.7 SSE 30 39 16 21 1023.0 1022.9 0.2
29/08:00am 13.2 7.1 6.8 65 3.1 SSE 28 37 15 20 1022.9 1022.8 0.2
29/07:30am 12.0 6.7 6.7 70 2.5 SSE 24 32 13 17 1022.9 1022.8 0.2
29/07:00am 10.7 5.7 6.3 74 2.0 SSE 22 28 12 15 1022.7 1022.6 0.2
29/06:30am 10.2 3.9 5.8 74 2.0 SE 28 35 15 19 1022.7 1022.6 0.2
29/06:00am 10.1 4.5 5.3 72 2.2 SE 24 32 13 17 1022.5 1022.4 0.2
29/05:30am 10.4 4.8 5.2 70 2.4 SSE 24 32 13 17 1022.3 1022.2 0.2
29/05:00am 8.8 4.0 4.8 76 1.8 SSE 19 22 10 12 1022.3 1022.2 0.2
29/04:30am 8.5 3.7 4.9 78 1.6 SSE 19 22 10 12 1022.3 1022.2 0.2
29/04:00am 9.3 4.9 4.9 74 2.0 SSE 17 20 9 11 1022.5 1022.4 0.2
29/03:30am 9.9 5.2 5.1 72 2.2 SSE 19 22 10 12 1022.7 1022.6 0.2
29/03:00am 10.9 6.2 5.2 68 2.6 SSE 19 22 10 12 1022.9 1022.8 0.2
29/02:30am 11.2 6.4 5.5 68 2.6 SE 20 24 11 13 1023.2 1023.1 0.2
29/02:00am 10.0 6.1 5.4 73 2.1 SE 15 19 8 10 1023.3 1023.2 0.2
29/01:30am 11.3 6.7 5.8 69 2.6 SSE 19 24 10 13 1023.3 1023.2 0.2
29/01:00am 11.4 6.8 5.7 68 2.6 SSE 19 20 10 11 1023.6 1023.5 0.2
29/12:30am 11.8 7.1 5.9 67 2.8 SE 20 28 11 15 1023.9 1023.8 0.2
29/12:00am 12.4 7.8 5.8 64 3.1 ESE 19 24 10 13 1024.1 1024.0 0.2
 
Date/Time
EDT
Temp
°C
App
Temp
°C
Dew
Point
Rel
Hum
%
Delta-T
°C
Wind Press
QNH
hPa
Press
MSL
hPa
Rain
since 9 am
mm
Dir
 
Spd
km/h
Gust
km/h
Spd
kts
Gust
kts
28/11:30pm 12.5 7.7 5.7 63 3.2 SE 20 26 11 14 1024.0 1023.9 0.2
28/11:00pm 13.3 8.1 5.7 60 3.6 SE 22 32 12 17 1024.0 1023.9 0.2
28/10:30pm 13.4 9.0 4.6 55 4.0 ESE 17 26 9 14 1024.0 1023.9 0.2
28/10:00pm 13.9 9.0 3.9 51 4.5 ESE 19 26 10 14 1023.8 1023.7 0.2
28/09:30pm 15.1 9.2 3.9 47 5.1 ESE 24 33 13 18 1023.6 1023.5 0.2
28/09:00pm 15.5 10.3 3.6 45 5.4 ESE 20 30 11 16 1023.3 1023.2 0.2
28/08:30pm 16.3 10.4 4.0 44 5.7 ESE 24 33 13 18 1023.0 1022.9 0.2
28/08:00pm 17.4 10.7 3.7 40 6.4 ESE 28 33 15 18 1022.6 1022.5 0.2
28/07:30pm 18.2 12.3 4.0 39 6.7 ESE 24 32 13 17 1022.2 1022.1 0.2
28/07:00pm 18.8 13.0 4.6 39 6.8 ESE 24 33 13 18 1021.9 1021.8 0.2
28/06:30pm 19.2 13.2 5.3 40 6.8 ESE 26 35 14 19 1021.6 1021.5 0.2
28/06:00pm 19.5 13.8 4.8 38 7.1 ESE 24 33 13 18 1021.3 1021.2 0.2
28/05:30pm 19.7 14.8 5.0 38 7.2 SE 20 32 11 17 1021.1 1021.0 0.2
28/05:00pm 19.1 15.7 9.3 53 5.1 SSE 17 28 9 15 1021.2 1021.1 0.2
28/04:30pm 20.8 14.1 5.6 37 7.5 ESE 30 43 16 23 1020.6 1020.5 0.2
28/04:00pm 22.0 15.3 5.8 35 8.1 SE 30 43 16 23 1020.7 1020.6 0.2
28/03:30pm 21.3 16.4 5.2 35 8.0 ESE 20 32 11 17 1020.7 1020.6 0.2
28/03:00pm 22.4 17.3 5.8 34 8.3 ESE 22 41 12 22 1021.1 1021.0 0.2
28/02:30pm 21.8 16.5 6.9 38 7.6 SE 24 35 13 19 1021.2 1021.1 0.2
28/02:00pm 22.8 17.5 7.0 36 8.1 ESE 24 39 13 21 1021.5 1021.4 0.2
28/01:30pm 20.9 15.4 6.1 38 7.4 SSE 24 35 13 19 1021.9 1021.8 0.0
28/01:00pm 21.8 17.5 7.2 39 7.5 SE 19 28 10 15 1021.9 1021.8 0.0
28/12:30pm 20.9 15.8 6.1 38 7.4 SE 22 35 12 19 1022.1 1022.0 0.0
28/12:00pm 20.1 15.8 5.4 38 7.2 ESE 17 30 9 16 1022.3 1022.2 0.0
28/11:30am 19.2 14.1 4.2 37 7.2 SE 20 35 11 19 1022.5 1022.4 0.0
28/11:00am 19.3 13.6 5.0 39 6.9 SE 24 41 13 22 1022.5 1022.4 0.0
28/10:30am 18.5 12.1 5.4 42 6.4 SSE 28 39 15 21 1022.7 1022.6 0.0
28/10:00am 17.0 11.1 5.9 48 5.4 SSE 26 39 14 21 1022.8 1022.7 0.0
28/09:30am 16.4 10.7 6.5 52 4.8 SE 26 33 14 18 1022.8 1022.7 0.0
28/09:00am 15.5 9.0 6.5 55 4.4 SE 30 41 16 22 1022.7 1022.6 0.0
28/08:30am 14.8 9.2 7.1 60 3.8 SSE 26 33 14 18 1022.6 1022.5 0.0
28/08:00am 13.6 8.4 7.2 65 3.1 SSE 24 32 13 17 1022.0 1021.9 0.0
28/07:30am 12.5 9.1 7.6 72 2.4 SSE 15 19 8 10 1021.8 1021.7 0.0
28/07:00am 10.6 7.9 7.3 80 1.6 S 11 13 6 7 1021.6 1021.5 0.0
28/06:30am 9.2 6.8 7.0 86 1.0 S 9 13 5 7 1021.2 1021.1 0.0
28/06:00am 9.3 6.8 6.7 84 1.2 S 9 13 5 7 1021.2 1021.1 0.0
28/05:30am 10.8 9.5 7.7 81 1.5 S 4 9 2 5 1020.9 1020.8 0.0
28/05:00am 10.8 9.0 7.9 82 1.4 S 7 9 4 5 1020.7 1020.6 0.0
28/04:30am 11.0 7.3 7.9 81 1.5 S 17 24 9 13 1020.4 1020.3 0.0
28/04:00am 11.9 7.3 8.0 77 1.9 SE 22 28 12 15 1020.1 1020.0 0.0
28/03:30am 12.3 7.2 7.8 74 2.2 SE 24 33 13 18 1020.2 1020.1 0.0
28/03:00am 12.9 7.2 8.2 73 2.3 SE 28 32 15 17 1020.2 1020.1 0.0
28/02:30am 13.1 8.2 8.4 73 2.3 SE 24 32 13 17 1020.3 1020.2 0.0
28/02:00am 13.5 8.6 8.4 71 2.5 SSE 24 30 13 16 1020.4 1020.3 0.0
28/01:30am 14.0 9.5 8.4 69 2.8 SSE 22 28 12 15 1020.3 1020.2 0.0
28/01:00am 14.2 9.8 8.8 70 2.7 SSE 22 26 12 14 1020.4 1020.3 0.0
28/12:30am 14.2 10.9 9.4 73 2.5 SSE 17 20 9 11 1020.2 1020.1 0.0
28/12:00am 13.8 11.7 9.6 76 2.1 SSE 11 15 6 8 1020.3 1020.2 0.0
 
Date/Time
EDT
Temp
°C
App
Temp
°C
Dew
Point
Rel
Hum
%
Delta-T
°C
Wind Press
QNH
hPa
Press
MSL
hPa
Rain
since 9 am
mm
Dir
 
Spd
km/h
Gust
km/h
Spd
kts
Gust
kts
27/11:30pm 14.8 12.3 9.8 72 2.6 ESE 13 19 7 10 1020.0 1019.9 0.0
27/11:00pm 14.4 12.4 10.2 76 2.2 SSE 11 13 6 7 1019.9 1019.8 0.0
27/10:30pm 13.8 11.7 9.8 77 2.1 SSE 11 15 6 8 1019.7 1019.6 0.0
27/10:00pm 14.1 11.2 9.7 75 2.3 E 15 19 8 10 1019.2 1019.1 0.0
27/09:30pm 14.9 11.2 10.1 73 2.5 ENE 20 24 11 13 1018.7 1018.6 0.0
27/09:00pm 15.2 12.0 9.8 70 2.8 ENE 17 22 9 12 1018.3 1018.2 0.0
27/08:30pm 15.8 12.0 9.7 67 3.2 NE 20 26 11 14 1017.7 1017.7 0.0
27/08:00pm 16.5 13.2 9.7 64 3.5 NE 17 19 9 10 1017.2 1017.2 0.0
27/07:30pm 16.6 14.4 9.5 63 3.7 NE 11 15 6 8 1016.8 1016.8 0.0
27/07:00pm 17.4 15.7 8.5 56 4.6 N 7 11 4 6 1016.4 1016.4 0.0
27/06:30pm 17.7 15.2 8.3 54 4.8 N 11 15 6 8 1016.0 1016.0 0.0
27/06:00pm 17.8 15.1 8.9 56 4.6 NNW 13 17 7 9 1015.9 1015.9 0.0
27/05:30pm 18.1 15.4 10.2 60 4.2 NW 15 20 8 11 1015.9 1015.9 0.0
27/05:00pm 18.3 15.6 10.4 60 4.2 NNW 15 19 8 10 1015.8 1015.8 0.0
27/04:30pm 18.4 15.7 10.3 59 4.3 NNW 15 19 8 10 1015.7 1015.7 0.0
27/04:00pm 17.9 14.7 9.8 59 4.3 NNW 17 20 9 11 1015.9 1015.9 0.0
27/03:30pm 18.7 15.0 10.0 57 4.6 N 20 24 11 13 1015.9 1015.9 0.0
27/03:00pm 19.1 15.5 10.4 57 4.7 N 20 26 11 14 1015.8 1015.8 0.0
27/02:30pm 18.2 14.1 10.1 59 4.3 N 22 26 12 14 1015.9 1015.9 0.0
27/02:00pm 19.0 14.8 9.8 55 4.9 NNE 22 28 12 15 1016.1 1016.1 0.0
27/01:30pm 18.6 14.5 8.8 53 5.1 N 20 24 11 13 1016.3 1016.3 0.0
27/01:00pm 18.3 14.0 8.0 51 5.3 N 20 24 11 13 1016.4 1016.4 0.0
27/12:30pm 19.1 15.0 8.7 51 5.4 NNE 20 26 11 14 1016.5 1016.5 0.0
27/12:00pm 17.8 14.6 8.4 54 4.8 NNE 15 20 8 11 1016.8 1016.8 0.0
27/11:30am 17.9 13.8 7.9 52 5.1 NE 19 24 10 13 1016.9 1016.9 0.0

Other Formats:

Comma delimited format used in spreadsheet applications
http://www.bom.gov.au/fwo/IDT60801/IDT60801.95960.axf

JavaScript Object Notation format (JSON) in row-major order
http://www.bom.gov.au/fwo/IDT60801/IDT60801.95960.json